createdAt,value
2022-11-10T00:02:48.006Z,14.50
2022-11-10T00:05:52.403Z,14.30
2022-11-10T00:08:57.397Z,14.40
2022-11-10T00:12:01.852Z,14.50
2022-11-10T00:15:24.902Z,14.50
2022-11-10T00:18:29.614Z,14.40
2022-11-10T00:21:34.023Z,14.40
2022-11-10T00:24:38.187Z,14.50
2022-11-10T00:27:42.517Z,14.50
2022-11-10T00:30:47.431Z,14.60
2022-11-10T00:33:52.501Z,14.40
2022-11-10T00:36:56.614Z,14.40
2022-11-10T00:40:01.550Z,14.40
2022-11-10T00:43:05.746Z,14.40
2022-11-10T00:46:10.210Z,14.40
2022-11-10T00:49:14.822Z,14.40
2022-11-10T00:52:19.851Z,14.50
2022-11-10T00:55:24.252Z,14.50
2022-11-10T00:58:28.811Z,14.60
2022-11-10T01:01:34.479Z,14.50
2022-11-10T01:04:38.760Z,14.50
2022-11-10T01:07:43.268Z,14.50
2022-11-10T01:10:47.640Z,14.60
2022-11-10T01:13:53.712Z,14.70
2022-11-10T01:16:58.143Z,14.70
2022-11-10T01:20:02.452Z,14.70
2022-11-10T01:23:07.810Z,14.70
2022-11-10T01:26:13.351Z,14.60
2022-11-10T01:29:17.943Z,14.60
2022-11-10T01:32:23.405Z,14.60
2022-11-10T01:35:27.963Z,14.60
2022-11-10T01:38:34.633Z,14.60
2022-11-10T01:41:39.232Z,14.60
2022-11-10T01:45:22.425Z,14.50
2022-11-10T01:48:50.877Z,14.10
2022-11-10T01:52:09.813Z,14.40
2022-11-10T01:55:15.034Z,14.60
2022-11-10T01:58:25.320Z,14.60
2022-11-10T02:01:30.314Z,14.70
2022-11-10T02:04:37.599Z,14.60
2022-11-10T02:07:42.983Z,14.60
2022-11-10T02:10:47.235Z,14.50
2022-11-10T02:13:52.585Z,14.40
2022-11-10T02:16:58.619Z,14.40
2022-11-10T02:20:07.434Z,14.40
2022-11-10T02:23:30.441Z,14.40
2022-11-10T02:26:42.774Z,14.60
2022-11-10T02:29:47.357Z,14.40
2022-11-10T02:32:51.881Z,14.40
2022-11-10T02:35:56.558Z,14.30
2022-11-10T02:39:00.940Z,14.20
2022-11-10T02:42:10.274Z,14.30
2022-11-10T02:45:14.616Z,14.50
2022-11-10T02:48:18.903Z,14.60
2022-11-10T02:51:23.647Z,14.40
2022-11-10T02:54:27.829Z,14.40
2022-11-10T02:57:33.822Z,14.30
2022-11-10T03:00:37.931Z,14.30
2022-11-10T03:03:42.104Z,14.40
2022-11-10T03:06:46.503Z,14.50
2022-11-10T03:09:51.177Z,14.60
2022-11-10T03:12:57.272Z,14.60
2022-11-10T03:16:02.278Z,14.60
2022-11-10T03:19:06.489Z,14.60
2022-11-10T03:22:10.700Z,14.50
2022-11-10T03:25:15.400Z,14.30
2022-11-10T03:28:19.848Z,14.30
2022-11-10T03:31:24.338Z,14.30
2022-11-10T03:34:31.845Z,14.00
2022-11-10T03:37:36.982Z,14.20
2022-11-10T03:41:12.001Z,14.00
2022-11-10T03:44:06.432Z,13.90
2022-11-10T03:47:10.550Z,14.20
2022-11-10T03:50:16.642Z,14.00
2022-11-10T03:53:21.649Z,13.90
2022-11-10T03:56:26.531Z,13.70
2022-11-10T03:59:30.784Z,14.00
2022-11-10T04:02:36.092Z,13.90
2022-11-10T04:05:59.036Z,13.90
2022-11-10T04:09:04.925Z,14.00
2022-11-10T04:12:27.977Z,13.80
2022-11-10T04:15:44.267Z,13.80
2022-11-10T04:18:48.450Z,14.00
2022-11-10T04:21:52.866Z,14.00
2022-11-10T04:24:58.102Z,14.10
2022-11-10T04:28:02.456Z,14.10
2022-11-10T04:31:07.811Z,13.90
2022-11-10T04:34:14.573Z,14.10
2022-11-10T04:37:19.137Z,14.20
2022-11-10T04:40:23.486Z,14.20
2022-11-10T04:43:28.337Z,13.60
2022-11-10T04:46:38.296Z,13.80
2022-11-10T04:49:42.335Z,13.80
2022-11-10T04:52:46.714Z,13.80
2022-11-10T04:55:51.504Z,13.80
2022-11-10T04:58:57.045Z,13.90
2022-11-10T05:02:01.115Z,14.00
2022-11-10T05:05:06.491Z,13.90
2022-11-10T05:08:11.264Z,13.80
2022-11-10T05:11:18.642Z,13.90
2022-11-10T05:14:23.069Z,14.00
2022-11-10T05:17:27.522Z,14.10
2022-11-10T05:20:31.889Z,14.10
2022-11-10T05:23:39.114Z,14.00
2022-11-10T05:26:43.752Z,14.00
2022-11-10T05:29:48.122Z,13.90
2022-11-10T05:32:52.164Z,14.10
2022-11-10T05:35:56.839Z,14.10
2022-11-10T05:39:01.286Z,14.10
2022-11-10T05:42:05.762Z,14.20
2022-11-10T05:45:10.193Z,13.90
2022-11-10T05:48:14.888Z,13.70
2022-11-10T05:51:19.384Z,13.50
2022-11-10T05:54:23.829Z,13.40
2022-11-10T05:57:28.346Z,13.50
2022-11-10T06:00:33.222Z,13.60
2022-11-10T06:03:37.722Z,13.60
2022-11-10T06:06:42.395Z,13.80
2022-11-10T06:09:48.460Z,13.80
2022-11-10T06:12:52.868Z,13.60
2022-11-10T06:15:57.142Z,13.70
2022-11-10T06:19:01.808Z,13.90
2022-11-10T06:22:07.784Z,13.60
2022-11-10T06:25:12.747Z,13.70
2022-11-10T06:28:17.308Z,13.90
2022-11-10T06:31:22.081Z,14.10
2022-11-10T06:34:26.620Z,14.20
2022-11-10T06:37:30.626Z,14.30
2022-11-10T06:40:35.321Z,14.40
2022-11-10T06:43:39.838Z,14.40
2022-11-10T06:46:44.316Z,14.30
2022-11-10T06:49:49.373Z,14.30
2022-11-10T06:53:02.265Z,14.40
2022-11-10T06:56:07.352Z,14.40
2022-11-10T06:59:11.726Z,14.40
2022-11-10T07:02:16.311Z,14.50
2022-11-10T07:05:20.704Z,14.50
2022-11-10T07:08:25.329Z,14.60
2022-11-10T07:11:30.257Z,14.50
2022-11-10T07:14:35.064Z,14.60
2022-11-10T07:17:42.898Z,14.60
2022-11-10T07:20:47.347Z,14.60
2022-11-10T07:23:51.660Z,14.60
2022-11-10T07:27:00.195Z,14.60
2022-11-10T07:30:08.404Z,14.60
2022-11-10T07:33:14.888Z,14.60
2022-11-10T07:36:19.782Z,14.70
2022-11-10T07:39:24.400Z,14.80
2022-11-10T07:42:28.984Z,14.70
2022-11-10T07:45:34.662Z,14.70
2022-11-10T07:48:40.616Z,15.70
2022-11-10T07:51:45.299Z,14.80
2022-11-10T07:54:50.224Z,14.80
2022-11-10T07:58:05.641Z,14.90
2022-11-10T08:01:10.479Z,14.90
2022-11-10T08:04:14.926Z,15.10
2022-11-10T08:07:19.473Z,15.00
2022-11-10T08:10:24.119Z,15.10
2022-11-10T08:13:29.123Z,15.10
2022-11-10T08:16:34.066Z,15.20
2022-11-10T08:19:38.454Z,15.10
2022-11-10T08:22:43.762Z,15.10
2022-11-10T08:25:48.141Z,15.10
2022-11-10T08:28:52.882Z,15.30
2022-11-10T08:31:57.139Z,15.30
2022-11-10T08:35:01.125Z,15.30
2022-11-10T08:38:20.929Z,15.30
2022-11-10T08:41:25.130Z,15.30
2022-11-10T08:44:29.816Z,15.40
2022-11-10T08:47:35.711Z,15.50
2022-11-10T08:50:40.742Z,15.50
2022-11-10T08:53:44.942Z,15.40
2022-11-10T08:56:49.397Z,15.50
2022-11-10T08:59:54.512Z,15.60
2022-11-10T09:03:14.848Z,15.70
2022-11-10T09:06:19.147Z,15.70
2022-11-10T09:09:26.719Z,15.60
2022-11-10T09:12:31.139Z,15.50
2022-11-10T09:15:38.385Z,15.50
2022-11-10T09:18:42.677Z,15.40
2022-11-10T09:21:47.123Z,15.40
2022-11-10T09:24:51.680Z,15.50
2022-11-10T09:27:56.072Z,15.20
2022-11-10T09:31:00.653Z,14.90
2022-11-10T09:34:07.582Z,14.90
2022-11-10T09:37:13.083Z,15.10
2022-11-10T09:41:01.049Z,15.20
2022-11-10T09:44:27.741Z,15.10
2022-11-10T09:48:13.087Z,15.20
2022-11-10T09:51:31.764Z,15.50
2022-11-10T09:54:54.628Z,15.50
2022-11-10T09:57:59.687Z,15.60
2022-11-10T10:01:13.560Z,16.10
2022-11-10T10:04:51.487Z,15.40
2022-11-10T10:08:07.233Z,15.50
2022-11-10T10:11:43.822Z,15.50
2022-11-10T10:15:15.468Z,15.30
2022-11-10T10:18:23.161Z,15.20
2022-11-10T10:21:55.716Z,15.70
2022-11-10T10:25:08.343Z,16.10
2022-11-10T10:28:19.036Z,15.80
2022-11-10T10:31:30.531Z,15.40
2022-11-10T10:34:35.206Z,15.40
2022-11-10T10:38:09.848Z,15.50
2022-11-10T10:41:24.085Z,16.00
2022-11-10T10:44:28.757Z,16.60
2022-11-10T10:47:37.731Z,17.00
2022-11-10T10:50:43.269Z,16.90
2022-11-10T10:53:48.838Z,16.60
2022-11-10T10:57:22.730Z,16.30
2022-11-10T11:00:29.956Z,16.40
2022-11-10T11:03:52.110Z,16.40
2022-11-10T11:07:06.288Z,16.20
2022-11-10T11:10:24.305Z,16.10
2022-11-10T11:13:30.168Z,16.20
2022-11-10T11:16:50.437Z,16.20
2022-11-10T11:20:00.059Z,16.50
2022-11-10T11:23:12.020Z,16.50
2022-11-10T11:26:36.648Z,16.30
2022-11-10T11:30:00.056Z,16.30
2022-11-10T11:33:45.875Z,16.30
2022-11-10T11:37:00.818Z,16.20
2022-11-10T11:40:26.450Z,16.50
2022-11-10T11:44:03.105Z,16.70
2022-11-10T11:47:22.593Z,16.30
2022-11-10T11:50:56.059Z,16.30
2022-11-10T11:54:16.515Z,16.50
2022-11-10T11:57:42.287Z,16.40
2022-11-10T12:01:24.866Z,16.70
2022-11-10T12:04:44.995Z,16.90
2022-11-10T12:08:21.078Z,17.20
2022-11-10T12:11:44.933Z,17.20
2022-11-10T12:15:13.015Z,17.20
2022-11-10T12:18:36.316Z,16.80
2022-11-10T12:21:54.338Z,16.80
2022-11-10T12:25:19.166Z,16.70
2022-11-10T12:28:47.687Z,16.70
2022-11-10T12:32:03.858Z,16.90
2022-11-10T12:35:34.194Z,17.30
2022-11-10T12:39:01.851Z,17.60
2022-11-10T12:42:09.750Z,17.30
2022-11-10T12:45:24.146Z,17.60
2022-11-10T12:48:37.354Z,17.70
2022-11-10T12:52:18.583Z,17.80
2022-11-10T12:55:41.651Z,18.10
2022-11-10T12:58:46.439Z,18.10
2022-11-10T13:02:02.754Z,18.00
2022-11-10T13:05:28.945Z,17.90
2022-11-10T13:08:44.180Z,17.60
2022-11-10T13:12:05.058Z,17.30
2022-11-10T13:15:35.239Z,17.90
2022-11-10T13:18:45.896Z,17.50
2022-11-10T13:21:53.673Z,17.20
2022-11-10T13:25:39.483Z,17.20
2022-11-10T13:28:48.738Z,17.50
2022-11-10T13:31:55.378Z,17.00
2022-11-10T13:35:28.097Z,16.90
2022-11-10T13:38:32.533Z,16.90
2022-11-10T13:41:54.372Z,16.80
2022-11-10T13:45:27.242Z,17.10
2022-11-10T13:48:50.461Z,17.10
2022-11-10T13:52:10.466Z,17.00
2022-11-10T13:55:59.483Z,17.20
2022-11-10T13:59:18.847Z,16.90
2022-11-10T14:02:39.287Z,17.20
2022-11-10T14:06:03.724Z,17.20
2022-11-10T14:09:32.167Z,17.00
2022-11-10T14:12:50.784Z,16.90
2022-11-10T14:15:55.474Z,16.90
2022-11-10T14:19:17.587Z,16.70
2022-11-10T14:22:50.047Z,16.30
2022-11-10T14:26:03.757Z,16.60
2022-11-10T14:29:41.324Z,16.60
2022-11-10T14:32:45.958Z,16.40
2022-11-10T14:35:57.502Z,16.20
2022-11-10T14:39:08.012Z,16.30
2022-11-10T14:42:19.015Z,15.90
2022-11-10T14:45:27.353Z,15.80
2022-11-10T14:48:35.176Z,15.90
2022-11-10T14:51:40.534Z,16.50
2022-11-10T14:54:46.750Z,16.70
2022-11-10T14:58:16.423Z,16.50
2022-11-10T15:01:36.896Z,16.10
2022-11-10T15:04:45.076Z,16.20
2022-11-10T15:07:56.127Z,16.50
2022-11-10T15:11:00.912Z,16.90
2022-11-10T15:14:05.574Z,16.70
2022-11-10T15:17:16.304Z,16.60
2022-11-10T15:20:37.199Z,16.50
2022-11-10T15:23:44.826Z,16.50
2022-11-10T15:26:49.714Z,16.60
2022-11-10T15:29:57.539Z,16.60
2022-11-10T15:33:09.914Z,16.00
2022-11-10T15:36:28.686Z,16.00
2022-11-10T15:39:34.440Z,16.00
2022-11-10T15:42:41.639Z,16.00
2022-11-10T15:45:57.599Z,15.70
2022-11-10T15:49:03.780Z,15.50
2022-11-10T15:52:19.235Z,15.50
2022-11-10T15:55:25.064Z,15.40
2022-11-10T15:58:29.885Z,15.30
2022-11-10T16:01:36.067Z,15.40
2022-11-10T16:04:40.802Z,15.60
2022-11-10T16:07:46.723Z,15.70
2022-11-10T16:10:55.151Z,15.60
2022-11-10T16:14:02.435Z,15.60
2022-11-10T16:17:10.339Z,15.60
2022-11-10T16:20:15.785Z,16.00
2022-11-10T16:23:21.762Z,16.20
2022-11-10T16:26:34.213Z,16.40
2022-11-10T16:29:39.004Z,16.20
2022-11-10T16:32:43.510Z,16.00
2022-11-10T16:35:53.920Z,15.70
2022-11-10T16:39:01.873Z,15.80
2022-11-10T16:42:06.504Z,15.70
2022-11-10T16:45:17.130Z,15.40
2022-11-10T16:48:28.703Z,15.50
2022-11-10T16:51:48.556Z,15.70
2022-11-10T16:54:53.573Z,16.10
2022-11-10T16:57:59.396Z,16.20
2022-11-10T17:01:05.580Z,16.20
2022-11-10T17:04:13.254Z,16.20
2022-11-10T17:07:24.514Z,15.80
2022-11-10T17:10:29.139Z,15.60
2022-11-10T17:13:33.680Z,15.90
2022-11-10T17:16:43.117Z,15.80
2022-11-10T17:19:49.008Z,15.50
2022-11-10T17:22:54.043Z,15.70
2022-11-10T17:26:00.749Z,15.80
2022-11-10T17:29:04.884Z,15.90
2022-11-10T17:32:08.863Z,15.80
2022-11-10T17:35:13.656Z,15.90
2022-11-10T17:38:25.708Z,15.70
2022-11-10T17:41:30.249Z,15.80
2022-11-10T17:44:34.751Z,15.60
2022-11-10T17:47:39.106Z,15.50
2022-11-10T17:50:46.771Z,15.30
2022-11-10T17:53:51.953Z,15.10
2022-11-10T17:56:57.709Z,14.90
2022-11-10T18:00:02.009Z,15.20
2022-11-10T18:03:08.859Z,15.50
2022-11-10T18:06:15.322Z,15.70
2022-11-10T18:09:19.748Z,16.10
2022-11-10T18:12:27.952Z,16.30
2022-11-10T18:15:32.928Z,16.40
2022-11-10T18:18:38.094Z,16.40
2022-11-10T18:21:42.553Z,16.10
2022-11-10T18:24:47.600Z,15.60
2022-11-10T18:27:52.252Z,15.70
2022-11-10T18:30:57.777Z,15.70
2022-11-10T18:34:02.423Z,15.70
2022-11-10T18:37:07.266Z,15.70
2022-11-10T18:40:12.516Z,16.10
2022-11-10T18:43:16.883Z,16.30
2022-11-10T18:46:21.520Z,16.60
2022-11-10T18:49:25.903Z,16.70
2022-11-10T18:52:30.332Z,16.60
2022-11-10T18:55:35.533Z,16.70
2022-11-10T18:58:40.220Z,16.70
2022-11-10T19:01:44.856Z,16.80
2022-11-10T19:04:53.420Z,16.70
2022-11-10T19:07:58.762Z,16.40
2022-11-10T19:11:12.903Z,15.90
2022-11-10T19:14:17.291Z,16.00
2022-11-10T19:17:22.769Z,15.50
2022-11-10T19:20:27.659Z,15.20
2022-11-10T19:23:32.505Z,15.50
2022-11-10T19:26:37.354Z,15.90
2022-11-10T19:29:41.995Z,16.00
2022-11-10T19:32:46.757Z,15.80
2022-11-10T19:35:51.357Z,16.00
2022-11-10T19:38:56.745Z,16.20
2022-11-10T19:42:01.881Z,16.20
2022-11-10T19:45:06.844Z,16.20
2022-11-10T19:48:11.450Z,16.20
2022-11-10T19:51:17.527Z,16.20
2022-11-10T19:54:22.329Z,16.40
2022-11-10T19:57:27.983Z,16.40
2022-11-10T20:00:32.780Z,16.50
2022-11-10T20:03:37.930Z,16.50
2022-11-10T20:06:42.998Z,16.40
2022-11-10T20:09:47.684Z,16.20
2022-11-10T20:12:51.961Z,16.10
2022-11-10T20:15:56.445Z,16.10
2022-11-10T20:19:00.536Z,16.10
2022-11-10T20:22:05.178Z,16.20
2022-11-10T20:25:09.566Z,16.20
2022-11-10T20:28:14.359Z,16.40
2022-11-10T20:31:23.671Z,16.40
2022-11-10T20:34:28.271Z,16.30
2022-11-10T20:37:33.850Z,16.20
2022-11-10T20:40:44.363Z,16.30
2022-11-10T20:43:49.911Z,16.30
2022-11-10T20:46:55.379Z,16.30
2022-11-10T20:49:59.929Z,16.20
2022-11-10T20:53:05.826Z,16.10
2022-11-10T20:56:12.690Z,16.00
2022-11-10T20:59:17.208Z,16.10
2022-11-10T21:02:22.107Z,16.10
2022-11-10T21:05:26.359Z,15.90
2022-11-10T21:08:31.451Z,16.20
2022-11-10T21:11:54.438Z,16.30
2022-11-10T21:14:58.790Z,16.20
2022-11-10T21:18:03.362Z,16.10
2022-11-10T21:21:21.071Z,16.00
2022-11-10T21:24:28.078Z,16.00
2022-11-10T21:27:32.847Z,15.90
2022-11-10T21:30:37.200Z,15.80
2022-11-10T21:33:41.476Z,15.80
2022-11-10T21:36:46.133Z,15.60
2022-11-10T21:39:50.762Z,15.40
2022-11-10T21:42:55.774Z,15.00
2022-11-10T21:46:04.123Z,15.00
2022-11-10T21:49:08.596Z,14.80
2022-11-10T21:52:13.148Z,14.80
2022-11-10T21:55:18.043Z,14.60
2022-11-10T21:58:22.368Z,14.70
2022-11-10T22:01:26.860Z,14.70
2022-11-10T22:04:31.490Z,14.70
2022-11-10T22:07:38.767Z,14.40
2022-11-10T22:11:01.433Z,14.60
2022-11-10T22:14:31.971Z,14.90
2022-11-10T22:17:54.697Z,15.10
2022-11-10T22:20:58.807Z,15.40
2022-11-10T22:24:21.587Z,15.40
2022-11-10T22:27:26.123Z,15.40
2022-11-10T22:30:30.869Z,15.30
2022-11-10T22:33:37.201Z,15.20
2022-11-10T22:36:41.546Z,15.40
2022-11-10T22:40:04.069Z,15.20
2022-11-10T22:43:28.257Z,15.20
2022-11-10T22:46:37.939Z,15.00
2022-11-10T22:49:43.171Z,15.10
2022-11-10T22:52:47.664Z,15.10
2022-11-10T22:55:52.173Z,14.80
2022-11-10T22:58:59.833Z,14.50
2022-11-10T23:02:04.917Z,14.40
2022-11-10T23:05:09.291Z,14.70
2022-11-10T23:08:13.652Z,14.80
2022-11-10T23:11:20.648Z,14.70
2022-11-10T23:14:25.518Z,14.40
2022-11-10T23:17:29.678Z,14.80
2022-11-10T23:20:34.273Z,15.10
2022-11-10T23:23:40.543Z,15.10
2022-11-10T23:26:45.142Z,15.20
2022-11-10T23:29:49.441Z,15.20
2022-11-10T23:32:54.998Z,15.10
2022-11-10T23:35:59.457Z,14.90
2022-11-10T23:39:03.851Z,15.10
2022-11-10T23:42:08.264Z,15.20
2022-11-10T23:45:12.648Z,14.50
2022-11-10T23:48:17.366Z,14.70
2022-11-10T23:51:21.627Z,14.90
2022-11-10T23:54:26.081Z,14.80
2022-11-10T23:57:30.612Z,14.70
